createdAt,value
2023-04-02T02:51:02.784Z,97032.47
2023-04-02T02:53:30.721Z,97040.63
2023-04-02T02:55:59.626Z,97048.47
2023-04-02T02:58:29.088Z,97051.44
2023-04-02T03:00:57.013Z,97056.09
2023-04-02T03:03:27.502Z,97056.09
2023-04-02T03:05:57.483Z,97058.66
2023-04-02T03:08:29.340Z,97066.94
2023-04-02T03:10:58.251Z,97065.66
2023-04-02T03:13:28.569Z,97062.06
2023-04-02T03:16:00.851Z,97067.81
2023-04-02T03:18:36.897Z,97077.66
2023-04-02T03:21:08.163Z,97078.84
2023-04-02T03:23:38.313Z,97083.19
2023-04-02T03:26:07.875Z,97086.81
2023-04-02T03:28:37.446Z,97088.69
2023-04-02T03:31:07.035Z,97097.63
2023-04-02T03:33:35.912Z,97097.94
2023-04-02T03:36:05.200Z,97112.88
2023-04-02T03:38:34.104Z,97109.63
2023-04-02T03:41:05.914Z,97113.63
2023-04-02T03:43:36.100Z,97118.41
2023-04-02T03:46:10.663Z,97124.78
2023-04-02T03:48:40.436Z,97142.41
2023-04-02T03:51:14.328Z,97139.84
2023-04-02T03:53:42.448Z,97167.94
2023-04-02T03:56:12.065Z,97154.28
2023-04-02T03:58:40.793Z,97166.75
2023-04-02T04:01:13.506Z,97167.16
2023-04-02T04:03:42.641Z,97179.19
2023-04-02T04:06:11.434Z,97174.06
2023-04-02T04:08:43.483Z,97184.16
2023-04-02T04:11:15.487Z,97187.44
2023-04-02T04:13:46.083Z,97189.88
2023-04-02T04:16:15.978Z,97190.69
2023-04-02T04:18:46.707Z,97195.16
2023-04-02T04:21:17.166Z,97195.63
2023-04-02T04:23:50.407Z,97204.41
2023-04-02T04:26:21.320Z,97212.13
2023-04-02T04:28:58.755Z,97216.69
2023-04-02T04:31:30.932Z,97222.84
2023-04-02T04:34:04.303Z,97221.88
2023-04-02T04:36:33.290Z,97240.53
2023-04-02T04:39:05.927Z,97233.13
2023-04-02T04:41:36.261Z,97234.81
2023-04-02T04:44:07.470Z,97254.75
2023-04-02T04:46:38.086Z,97254.06
2023-04-02T04:49:09.021Z,97260.63
2023-04-02T04:51:40.404Z,97257.44
2023-04-02T04:54:15.147Z,97263.88
2023-04-02T04:56:47.497Z,97273.22
2023-04-02T04:59:18.090Z,97279.88
2023-04-02T05:01:47.868Z,97289.97
2023-04-02T05:04:17.748Z,97303.22
2023-04-02T05:06:51.389Z,97311.09
2023-04-02T05:09:21.353Z,97309.00
2023-04-02T05:11:53.964Z,97327.94
2023-04-02T05:14:25.072Z,97316.34
2023-04-02T05:16:56.588Z,97324.84
2023-04-02T05:19:26.468Z,97332.03
2023-04-02T05:21:57.387Z,97340.91
2023-04-02T05:24:41.640Z,97343.69
2023-04-02T05:27:17.629Z,97356.44
2023-04-02T05:29:46.084Z,97359.50
2023-04-02T05:32:15.102Z,97371.13
2023-04-02T05:34:42.991Z,97386.16
2023-04-02T05:37:14.833Z,97381.91
2023-04-02T05:39:43.237Z,97377.06
2023-04-02T05:42:16.856Z,97386.53
2023-04-02T05:44:57.562Z,97384.28
2023-04-02T05:47:27.450Z,97389.75
2023-04-02T05:50:07.628Z,97393.75
2023-04-02T05:52:37.400Z,97392.59
2023-04-02T05:55:29.179Z,97392.66
2023-04-02T05:58:17.675Z,97401.25
2023-04-02T06:01:07.775Z,97416.13
2023-04-02T06:03:42.058Z,97415.66
2023-04-02T06:06:15.566Z,97425.47
2023-04-02T06:08:45.676Z,97423.13
2023-04-02T06:11:14.727Z,97434.56
2023-04-02T06:13:44.026Z,97433.03
2023-04-02T06:16:13.337Z,97438.47
2023-04-02T06:18:41.297Z,97446.63
2023-04-02T06:21:10.020Z,97458.72
2023-04-02T06:23:39.468Z,97457.84
2023-04-02T06:26:09.033Z,97460.94
2023-04-02T06:28:42.744Z,97466.16
2023-04-02T06:31:23.393Z,97489.19
2023-04-02T06:33:54.804Z,97476.91
2023-04-02T06:36:22.849Z,97488.34
2023-04-02T06:38:50.769Z,97494.41
2023-04-02T06:41:20.856Z,97489.44
2023-04-02T06:43:50.198Z,97502.34
2023-04-02T06:46:20.705Z,97503.44
2023-04-02T06:48:49.090Z,97516.50
2023-04-02T06:51:17.668Z,97511.81
2023-04-02T06:53:46.626Z,97514.44
2023-04-02T06:56:23.293Z,97519.94
2023-04-02T06:58:51.275Z,97527.25
2023-04-02T07:01:23.425Z,97525.22
2023-04-02T07:03:51.742Z,97544.25
2023-04-02T07:06:21.056Z,97556.97
2023-04-02T07:08:49.661Z,97541.44
2023-04-02T07:11:20.657Z,97550.22
2023-04-02T07:13:49.028Z,97550.91
2023-04-02T07:16:17.943Z,97561.81
2023-04-02T07:18:47.487Z,97563.53
2023-04-02T07:21:15.607Z,97573.63
2023-04-02T07:23:43.744Z,97574.97
2023-04-02T07:26:14.944Z,97585.91
2023-04-02T07:28:42.833Z,97588.97
2023-04-02T07:31:17.858Z,97596.31
2023-04-02T07:33:47.117Z,97593.25
2023-04-02T07:36:15.993Z,97602.63
2023-04-02T07:38:44.185Z,97611.44
2023-04-02T07:41:12.134Z,97623.47
2023-04-02T07:43:40.276Z,97616.84
2023-04-02T07:46:08.702Z,97630.31
2023-04-02T07:48:36.732Z,97631.66
2023-04-02T07:51:06.912Z,97641.41
2023-04-02T07:53:35.746Z,97659.69
2023-04-02T07:56:04.030Z,97656.09
2023-04-02T07:58:32.300Z,97661.53
2023-04-02T08:01:00.861Z,97667.94
2023-04-02T08:03:29.551Z,97670.31
2023-04-02T08:05:58.440Z,97696.09
2023-04-02T08:08:27.795Z,97675.66
2023-04-02T08:10:55.926Z,97681.59
2023-04-02T08:13:23.980Z,97687.53
2023-04-02T08:15:52.451Z,97683.31
2023-04-02T08:18:23.627Z,97702.41
2023-04-02T08:20:52.643Z,97697.78
2023-04-02T08:23:21.699Z,97702.13
2023-04-02T08:25:51.199Z,97723.59
2023-04-02T08:28:21.621Z,97721.19
2023-04-02T08:30:50.121Z,97721.75
2023-04-02T08:33:18.845Z,97726.75
2023-04-02T08:35:47.122Z,97724.16
2023-04-02T08:38:17.870Z,97732.13
2023-04-02T08:40:47.939Z,97740.13
2023-04-02T08:43:31.340Z,97747.50
2023-04-02T08:46:06.561Z,97745.44
2023-04-02T08:48:35.296Z,97756.75
2023-04-02T08:51:05.991Z,97769.22
2023-04-02T08:53:35.596Z,97772.88
2023-04-02T08:56:08.576Z,97769.22
2023-04-02T08:58:42.938Z,97777.06
2023-04-02T09:01:16.120Z,97783.38
2023-04-02T09:03:45.902Z,97786.38
2023-04-02T09:06:16.581Z,97791.41
2023-04-02T09:08:44.975Z,97792.94
2023-04-02T09:11:17.361Z,97799.69
2023-04-02T09:13:48.036Z,97807.22
2023-04-02T09:16:17.067Z,97800.47
2023-04-02T09:18:47.917Z,97819.44
2023-04-02T09:21:30.430Z,97814.06
2023-04-02T09:23:58.438Z,97816.22
2023-04-02T09:26:30.480Z,97832.28
2023-04-02T09:29:06.542Z,97821.59
2023-04-02T09:31:37.597Z,97822.22
2023-04-02T09:34:20.966Z,97824.91
2023-04-02T09:36:48.976Z,97835.59
2023-04-02T09:39:18.708Z,97834.97
2023-04-02T09:41:58.787Z,97838.56
2023-04-02T09:44:35.756Z,97846.75
2023-04-02T09:47:04.834Z,97842.38
2023-04-02T09:49:34.338Z,97858.47
2023-04-02T09:52:22.275Z,97858.28
2023-04-02T09:55:21.894Z,97857.09
2023-04-02T09:57:50.609Z,97863.31
2023-04-02T10:00:31.488Z,97866.91
2023-04-02T10:03:21.289Z,97862.78
2023-04-02T10:05:49.820Z,97869.25
2023-04-02T10:08:20.539Z,97874.03
2023-04-02T10:10:49.864Z,97874.81
2023-04-02T10:13:20.980Z,97879.00
2023-04-02T10:15:55.829Z,97886.44
2023-04-02T10:18:31.048Z,97882.91
2023-04-02T10:20:59.262Z,97891.09
2023-04-02T10:23:29.717Z,97904.97
2023-04-02T10:26:03.475Z,97898.66
2023-04-02T10:28:42.567Z,97904.41
2023-04-02T10:31:13.653Z,97907.63
2023-04-02T10:33:52.779Z,97913.78
2023-04-02T10:36:25.151Z,97915.28
2023-04-02T10:38:53.942Z,97919.59
2023-04-02T10:41:30.245Z,97926.41
2023-04-02T10:44:19.518Z,97938.16
2023-04-02T10:46:55.708Z,97928.28
2023-04-02T10:49:28.947Z,97934.31
2023-04-02T10:52:00.658Z,97933.72
2023-04-02T10:54:39.119Z,97931.66
2023-04-02T10:57:10.212Z,97938.44
2023-04-02T10:59:39.895Z,97926.25
2023-04-02T11:02:28.362Z,97934.50
2023-04-02T11:04:57.345Z,97931.91
2023-04-02T11:07:27.238Z,97938.06
2023-04-02T11:09:56.304Z,97934.06
2023-04-02T11:12:25.779Z,97954.25
2023-04-02T11:14:53.769Z,97957.09
2023-04-02T11:17:23.154Z,97954.34
2023-04-02T11:19:51.120Z,97964.09
2023-04-02T11:22:41.958Z,97960.69
2023-04-02T11:25:21.353Z,97970.94
2023-04-02T11:27:49.412Z,97977.47
2023-04-02T11:30:21.317Z,97985.84
2023-04-02T11:32:51.380Z,97985.00
2023-04-02T11:35:38.169Z,97990.31
2023-04-02T11:38:39.606Z,97996.44
2023-04-02T11:41:07.624Z,97996.28
2023-04-02T11:44:01.086Z,97990.66
2023-04-02T11:46:45.514Z,98006.16
2023-04-02T11:49:37.547Z,98000.56
2023-04-02T11:52:11.984Z,98005.38
2023-04-02T11:54:40.751Z,98005.72
2023-04-02T11:57:14.874Z,98007.09
2023-04-02T11:59:45.428Z,97997.19
2023-04-02T12:02:15.726Z,98005.03
2023-04-02T12:04:57.606Z,98011.38
2023-04-02T12:08:05.829Z,98006.72
2023-04-02T12:10:34.500Z,98013.25
2023-04-02T12:13:02.569Z,98011.59
2023-04-02T12:15:36.260Z,98029.50
2023-04-02T12:18:06.138Z,98017.63
2023-04-02T12:20:36.261Z,98029.31
2023-04-02T12:23:04.451Z,98031.28
2023-04-02T12:25:33.040Z,98028.81
2023-04-02T12:28:20.623Z,98028.75
2023-04-02T12:30:48.940Z,98024.13
2023-04-02T12:33:30.603Z,98036.19
2023-04-02T12:36:00.977Z,98035.16
2023-04-02T12:38:29.737Z,98035.91
2023-04-02T12:40:58.437Z,98050.13
2023-04-02T12:43:27.756Z,98052.16
2023-04-02T12:45:56.494Z,98056.75
2023-04-02T12:48:24.522Z,98060.44
2023-04-02T12:50:52.515Z,98053.22
2023-04-02T12:53:23.764Z,98058.09
2023-04-02T12:55:52.543Z,98059.44
2023-04-02T12:58:26.718Z,98064.63
2023-04-02T13:01:04.909Z,98075.16
2023-04-02T13:03:33.779Z,98059.13
2023-04-02T13:06:03.527Z,98057.25
2023-04-02T13:08:38.468Z,98075.81
2023-04-02T13:11:06.740Z,98077.59
2023-04-02T13:13:35.921Z,98075.69
2023-04-02T13:16:09.840Z,98077.41
2023-04-02T13:18:38.368Z,98081.00
2023-04-02T13:21:06.593Z,98085.03
2023-04-02T13:23:37.495Z,98080.13
2023-04-02T13:26:16.635Z,98077.31
2023-04-02T13:28:45.459Z,98091.41
2023-04-02T13:31:17.228Z,98095.53
2023-04-02T13:33:45.767Z,98097.34
2023-04-02T13:36:15.192Z,98108.78
2023-04-02T13:39:20.155Z,98099.06
2023-04-02T13:45:03.312Z,98114.50
2023-04-02T13:48:12.659Z,98117.31
2023-04-02T13:51:30.017Z,98110.19
2023-04-02T13:54:30.775Z,98120.03
2023-04-02T13:58:09.559Z,98117.81
2023-04-02T14:04:10.014Z,98114.88
2023-04-02T14:10:44.054Z,98126.06
2023-04-02T14:13:25.335Z,98135.03
2023-04-02T14:16:06.983Z,98139.81
2023-04-02T14:18:51.432Z,98136.47
2023-04-02T14:22:32.297Z,98144.78
2023-04-02T14:24:37.656Z,98148.91
2023-04-02T14:27:18.275Z,98158.47
2023-04-02T14:29:48.149Z,98149.44
2023-04-02T14:32:18.381Z,98153.13
2023-04-02T14:34:48.710Z,98150.19
2023-04-02T14:37:19.661Z,98159.22
2023-04-02T14:39:52.603Z,98146.22
2023-04-02T14:42:23.410Z,98158.22
2023-04-02T14:45:11.441Z,98159.81
2023-04-02T14:47:54.527Z,98166.69
2023-04-02T14:50:40.432Z,98166.25
2023-04-02T14:56:51.595Z,98156.34
2023-04-02T14:59:42.708Z,98165.59
2023-04-02T15:03:00.204Z,98166.38
2023-04-02T15:05:45.804Z,98168.66
2023-04-02T15:11:22.670Z,98167.31
2023-04-02T15:14:09.819Z,98180.50
2023-04-02T15:16:50.239Z,98166.31
2023-04-02T15:19:18.672Z,98154.25
2023-04-02T15:22:09.305Z,98164.28
2023-04-02T15:24:43.404Z,98180.88
2023-04-02T15:27:27.136Z,98177.69
2023-04-02T15:29:57.855Z,98166.94
2023-04-02T15:32:31.119Z,98159.06
2023-04-02T15:35:01.048Z,98155.94
2023-04-02T15:37:32.298Z,98180.81
2023-04-02T15:40:21.329Z,98163.56
2023-04-02T15:42:54.254Z,98174.78
2023-04-02T15:45:35.360Z,98179.84
2023-04-02T15:48:26.691Z,98173.84
2023-04-02T15:51:03.209Z,98183.81
2023-04-02T15:53:41.143Z,98181.34
2023-04-02T15:56:14.373Z,98190.44
2023-04-02T15:59:03.958Z,98182.03
2023-04-02T16:01:37.569Z,98183.25
2023-04-02T16:04:19.573Z,98180.41
2023-04-02T16:07:00.643Z,98187.47
2023-04-02T16:09:31.141Z,98190.28
2023-04-02T16:12:15.235Z,98194.88
2023-04-02T16:14:52.826Z,98205.00
2023-04-02T16:17:44.508Z,98195.53
2023-04-02T16:20:19.464Z,98211.91
2023-04-02T16:22:59.522Z,98207.38
2023-04-02T16:25:30.217Z,98213.56
2023-04-02T16:28:01.896Z,98220.19
2023-04-02T16:30:43.478Z,98228.34
2023-04-02T16:33:25.377Z,98235.91
2023-04-02T16:36:02.526Z,98240.19
2023-04-02T16:38:41.551Z,98240.09
2023-04-02T16:41:12.317Z,98250.88
2023-04-02T16:43:43.928Z,98244.22
2023-04-02T16:46:39.088Z,98252.75
2023-04-02T16:49:40.222Z,98253.84
2023-04-02T16:52:21.995Z,98254.34
2023-04-02T16:55:04.359Z,98260.34
2023-04-02T16:57:34.250Z,98268.38
2023-04-02T17:00:06.062Z,98272.53
2023-04-02T17:02:42.870Z,98279.66
2023-04-02T17:05:21.449Z,98280.59
2023-04-02T17:07:52.996Z,98284.13
2023-04-02T17:10:25.944Z,98294.09
2023-04-02T17:12:56.539Z,98289.53
2023-04-02T17:15:28.339Z,98300.34
2023-04-02T17:17:58.118Z,98298.22
2023-04-02T17:20:27.053Z,98304.91
2023-04-02T17:22:56.725Z,98312.06
2023-04-02T17:25:26.735Z,98313.19
2023-04-02T17:27:55.837Z,98319.44
2023-04-02T17:30:28.085Z,98319.44
2023-04-02T17:32:58.164Z,98327.03
2023-04-02T17:35:32.514Z,98335.59
2023-04-02T17:38:04.066Z,98333.94
2023-04-02T17:40:33.882Z,98334.47
2023-04-02T17:43:05.242Z,98339.31
2023-04-02T17:45:35.981Z,98337.31
2023-04-02T17:48:04.806Z,98351.47
2023-04-02T17:51:00.481Z,98341.06
2023-04-02T17:53:39.675Z,98348.50
2023-04-02T17:56:17.520Z,98341.63
2023-04-02T17:58:58.906Z,98350.47
2023-04-02T18:01:29.685Z,98357.66
2023-04-02T18:04:03.777Z,98359.25
2023-04-02T18:06:33.781Z,98359.00
2023-04-02T18:09:20.395Z,98372.13
2023-04-02T18:11:53.584Z,98373.75
2023-04-02T18:14:29.916Z,98383.44
2023-04-02T18:16:59.835Z,98393.03
2023-04-02T18:19:31.709Z,98397.38
2023-04-02T18:22:01.942Z,98400.56
2023-04-02T18:24:39.066Z,98394.84
2023-04-02T18:27:22.867Z,98405.72
2023-04-02T18:29:54.518Z,98402.03
2023-04-02T18:33:07.293Z,98411.09
2023-04-02T18:35:35.717Z,98408.50
2023-04-02T18:38:17.708Z,98419.22
2023-04-02T18:40:57.514Z,98419.28
2023-04-02T18:43:30.558Z,98427.50
2023-04-02T18:46:00.361Z,98428.78
2023-04-02T18:48:42.205Z,98433.38
2023-04-02T18:51:12.478Z,98437.38
2023-04-02T18:53:41.025Z,98447.22
2023-04-02T18:56:12.975Z,98447.13
2023-04-02T18:58:43.508Z,98451.13
2023-04-02T19:01:14.438Z,98464.47
2023-04-02T19:03:43.880Z,98466.53
2023-04-02T19:06:13.803Z,98474.47
2023-04-02T19:08:43.992Z,98468.72
2023-04-02T19:11:15.560Z,98471.69
2023-04-02T19:13:45.957Z,98475.78
2023-04-02T19:16:59.908Z,98476.59
2023-04-02T19:19:28.810Z,98478.81
2023-04-02T19:22:08.169Z,98483.97
2023-04-02T19:24:47.690Z,98482.50
2023-04-02T19:27:20.803Z,98488.84
2023-04-02T19:29:56.601Z,98479.00
2023-04-02T19:32:29.012Z,98486.53
2023-04-02T19:35:01.270Z,98490.00
2023-04-02T19:37:31.934Z,98492.38
2023-04-02T19:40:15.508Z,98495.41
2023-04-02T19:42:46.746Z,98494.16
2023-04-02T19:45:30.261Z,98502.09
2023-04-02T19:47:58.456Z,98497.56
2023-04-02T19:50:26.545Z,98504.09
2023-04-02T19:52:54.639Z,98513.78
2023-04-02T19:55:22.645Z,98511.78
2023-04-02T19:57:54.607Z,98508.97
2023-04-02T20:00:25.976Z,98520.44
2023-04-02T20:02:57.708Z,98529.25
2023-04-02T20:05:25.897Z,98526.47
2023-04-02T20:07:53.945Z,98534.38
2023-04-02T20:10:23.112Z,98528.25
2023-04-02T20:12:52.770Z,98529.69
2023-04-02T20:15:20.938Z,98531.22
2023-04-02T20:17:49.016Z,98535.13
2023-04-02T20:20:17.665Z,98529.38
2023-04-02T20:22:45.675Z,98539.94
2023-04-02T20:25:13.744Z,98544.16
2023-04-02T20:27:41.803Z,98543.94
2023-04-02T20:30:12.356Z,98543.56
2023-04-02T20:32:40.701Z,98545.72
2023-04-02T20:35:09.526Z,98550.31
2023-04-02T20:37:37.540Z,98554.69
2023-04-02T20:40:06.115Z,98549.63
2023-04-02T20:42:34.280Z,98555.59
2023-04-02T20:45:02.340Z,98559.22
2023-04-02T20:47:31.822Z,98557.56
2023-04-02T20:49:59.928Z,98552.91
2023-04-02T20:52:30.169Z,98560.16
2023-04-02T20:54:59.656Z,98551.28
2023-04-02T20:57:27.737Z,98556.97
2023-04-02T20:59:55.986Z,98561.22
2023-04-02T21:02:24.040Z,98568.59
2023-04-02T21:04:53.439Z,98575.50
2023-04-02T21:07:21.451Z,98585.53
2023-04-02T21:09:49.940Z,98585.66
2023-04-02T21:12:18.062Z,98591.59
2023-04-02T21:14:46.494Z,98584.00
2023-04-02T21:17:16.022Z,98590.28
2023-04-02T21:19:44.147Z,98585.19
2023-04-02T21:22:13.687Z,98586.00
2023-04-02T21:24:41.676Z,98592.00
2023-04-02T21:27:10.214Z,98584.28
2023-04-02T21:29:38.605Z,98589.06
2023-04-02T21:32:20.228Z,98592.47
2023-04-02T21:34:50.320Z,98599.09
2023-04-02T21:37:19.881Z,98604.63
2023-04-02T21:39:48.161Z,98607.19
2023-04-02T21:42:16.693Z,98607.94
2023-04-02T21:44:44.780Z,98610.03
2023-04-02T21:47:12.866Z,98604.75
2023-04-02T21:49:41.236Z,98609.41
2023-04-02T21:52:09.273Z,98611.44
2023-04-02T21:54:38.702Z,98620.00
2023-04-02T21:57:07.218Z,98624.84
2023-04-02T21:59:35.333Z,98622.81
2023-04-02T22:02:04.873Z,98629.81
2023-04-02T22:04:33.591Z,98624.91
2023-04-02T22:07:02.089Z,98629.91
2023-04-02T22:09:30.389Z,98631.97
2023-04-02T22:12:00.072Z,98626.56
2023-04-02T22:14:28.669Z,98633.25
2023-04-02T22:16:58.788Z,98628.88
2023-04-02T22:19:28.669Z,98632.94
2023-04-02T22:21:57.887Z,98632.19
2023-04-02T22:24:26.147Z,98638.66
2023-04-02T22:26:54.176Z,98644.31
2023-04-02T22:29:23.791Z,98642.00
2023-04-02T22:31:52.604Z,98644.00
2023-04-02T22:34:21.102Z,98647.28
2023-04-02T22:36:49.590Z,98647.84
2023-04-02T22:39:18.047Z,98657.31
2023-04-02T22:41:46.273Z,98654.31
2023-04-02T22:44:14.836Z,98655.06
2023-04-02T22:46:44.768Z,98662.97
2023-04-02T22:49:16.189Z,98662.97
2023-04-02T22:51:44.634Z,98661.38
2023-04-02T22:54:12.666Z,98664.69
2023-04-02T22:56:41.202Z,98671.56
2023-04-02T22:59:09.230Z,98668.75
2023-04-02T23:01:37.772Z,98677.91
2023-04-02T23:04:07.628Z,98677.16
2023-04-02T23:06:35.907Z,98682.78
2023-04-02T23:09:04.830Z,98673.63
2023-04-02T23:11:32.797Z,98678.63
2023-04-02T23:14:00.891Z,98678.47
2023-04-02T23:16:29.668Z,98681.38
2023-04-02T23:18:58.390Z,98684.75
2023-04-02T23:21:27.825Z,98685.44
2023-04-02T23:23:56.137Z,98687.75
2023-04-02T23:26:26.128Z,98682.56
2023-04-02T23:28:54.138Z,98689.44
2023-04-02T23:31:23.220Z,98684.97
2023-04-02T23:33:51.750Z,98689.81
2023-04-02T23:36:21.861Z,98687.25
2023-04-02T23:38:54.984Z,98688.34
2023-04-02T23:41:23.948Z,98691.69
2023-04-02T23:43:52.090Z,98691.25
2023-04-02T23:46:20.246Z,98695.53
2023-04-02T23:48:50.588Z,98686.56
2023-04-02T23:51:19.819Z,98686.56
2023-04-02T23:53:47.874Z,98685.19
2023-04-02T23:56:17.290Z,98685.19
2023-04-02T23:58:45.655Z,98677.91
